Date,TemperatureHighF,TemperatureAvgF,TemperatureLowF,DewpointHighF,DewpointAvgF,DewpointLowF,HumidityHigh,HumidityAvg,HumidityLow,PressureMaxIn,PressureMinIn,WindSpeedMaxMPH,WindSpeedAvgMPH,GustSpeedMaxMPH,PrecipitationSumIn
2014-1-1,66.7,48.3,31.8,51.8,41.7,29.7,97,79,55,30.24,29.91,16,3,17,0.00
2014-1-2,45.9,33.7,25.2,36.1,22.8,19.6,80,65,44,30.46,30.09,15,3,15,0.00
2014-1-3,52.9,37.3,24.4,28.9,24.5,19.4,82,62,37,30.47,30.10,13,2,13,0.00
2014-1-4,68.5,52.1,36.9,54.1,44.1,28.6,89,75,56,30.10,29.76,23,5,23,0.00
2014-1-5,61.2,38.5,22.8,57.6,30.3,13.5,91,73,52,30.49,29.74,20,5,22,0.01
2014-1-6,31.3,21.4,14.4,13.3,7.4,3.9,74,56,32,30.74,30.48,15,2,15,0.00
2014-1-7,48.6,31.0,16.0,18.3,13.3,9.1,81,52,23,30.62,30.34,12,2,17,0.00
2014-1-8,49.6,43.0,36.9,38.1,31.4,18.3,75,64,43,30.35,30.15,17,4,17,0.00
2014-1-9,48.4,43.4,38.1,47.8,42.3,37.0,99,96,74,30.22,30.02,9,1,11,0.22
2014-1-10,63.0,59.1,48.6,62.4,58.4,48.2,99,98,92,30.02,29.67,17,3,18,0.68
2014-1-11,66.7,52.0,42.8,51.3,39.9,32.4,98,68,29,30.08,29.80,17,2,17,0.00
2014-1-12,72.0,55.4,39.6,53.4,37.8,31.5,79,56,23,30.07,29.80,20,3,22,0.00
2014-1-13,64.8,57.2,41.2,57.9,41.0,27.1,93,58,29,30.06,29.77,19,3,19,0.00
2014-1-14,70.9,51.5,36.0,38.3,30.3,22.3,72,48,17,30.28,29.99,17,3,17,0.00
2014-1-15,54.9,41.9,33.3,28.6,25.1,22.6,67,53,29,30.37,30.11,14,2,14,0.00
2014-1-16,64.2,49.5,38.5,38.1,31.2,21.7,66,51,33,30.14,30.03,12,2,13,0.00
2014-1-17,53.2,44.5,33.1,21.7,19.2,13.6,59,37,21,30.34,30.14,10,2,12,0.00
2014-1-18,67.5,49.2,31.5,40.8,29.4,19.4,71,49,24,30.22,30.02,19,3,19,0.00
2014-1-19,66.4,48.4,37.2,32.0,28.1,25.0,66,47,24,30.30,30.06,8,1,8,0.00
2014-1-20,77.2,57.2,40.8,52.2,39.6,27.7,70,53,38,30.13,29.83,18,3,18,0.00
2014-1-21,54.1,41.9,28.6,30.2,19.6,12.7,63,42,25,30.37,30.13,16,3,16,0.00
2014-1-22,63.7,44.5,27.7,32.5,24.7,14.9,67,48,26,30.19,30.04,11,1,11,0.00
2014-1-23,44.4,37.4,28.9,29.1,18.6,5.2,58,47,36,30.72,30.14,22,4,22,0.00
2014-1-24,45.3,31.0,23.5,19.0,9.3,4.8,66,41,23,30.72,30.27,11,2,11,0.00
2014-1-25,65.8,44.1,28.2,35.8,27.5,18.9,74,55,27,30.28,29.99,12,2,12,0.00
2014-1-26,71.6,53.7,42.4,40.6,37.4,31.8,72,56,29,29.99,29.66,14,1,15,0.00
2014-1-27,48.9,42.2,30.7,39.4,19.9,6.4,78,43,26,30.27,29.75,16,4,20,0.00
2014-1-28,36.9,29.8,25.3,16.3,9.8,3.6,64,44,31,30.47,30.27,9,3,14,0.00
2014-1-29,49.5,31.8,17.4,15.4,10.8,6.4,71,45,18,30.49,30.24,8,1,9,0.00
2014-1-30,55.0,41.0,26.8,45.7,29.5,14.2,83,64,49,30.24,29.89,22,3,22,0.00
2014-1-31,75.6,61.7,50.7,58.3,54.4,45.7,90,78,54,29.92,29.78,20,4,20,0.00
2014-2-1,66.6,56.4,39.7,64.2,54.4,38.7,97,93,86,29.97,29.75,14,3,15,0.46
2014-2-2,39.7,34.9,31.5,38.7,33.9,30.0,97,96,94,30.24,29.96,13,3,13,0.38
2014-2-3,41.4,35.7,31.6,37.9,33.8,29.8,97,93,85,30.28,30.01,9,1,10,0.00
2014-2-4,44.1,38.9,35.1,43.5,38.0,34.0,98,97,93,30.10,29.87,8,1,10,0.43
2014-2-5,38.7,31.7,24.8,38.1,25.7,17.8,98,79,66,30.49,30.10,14,4,15,0.00
2014-2-6,33.1,25.8,21.0,22.6,19.1,15.1,83,75,61,30.58,30.41,11,2,11,0.00
2014-2-7,35.8,31.1,27.0,31.1,26.6,22.3,96,84,68,30.41,30.24,8,1,8,0.00
2014-2-8,52.0,39.2,32.2,43.9,37.0,31.1,98,92,74,30.25,30.03,12,1,12,0.09
2014-2-9,54.9,44.7,36.7,47.3,42.5,35.6,98,92,74,30.12,30.01,9,1,10,0.00
2014-2-10,41.5,36.0,34.3,40.5,34.2,27.5,97,93,77,30.25,30.09,11,3,15,0.03
2014-2-11,36.0,32.2,28.6,30.2,27.1,23.0,94,82,62,30.32,30.18,9,2,14,0.17
2014-2-12,50.4,36.8,29.1,35.2,29.5,25.7,95,78,40,30.22,30.04,12,1,12,0.17
2014-2-13,65.3,45.6,29.1,43.3,36.4,26.8,95,73,42,30.09,29.88,11,2,11,0.00
2014-2-14,71.2,55.6,45.0,51.4,39.8,30.0,91,60,26,30.05,29.75,17,4,17,0.00
2014-2-15,69.8,50.4,34.7,37.0,33.2,29.5,84,55,25,30.18,30.00,13,2,14,0.00
2014-2-16,75.6,60.8,46.0,60.8,50.8,34.3,89,70,55,30.08,29.88,15,2,15,0.00
2014-2-17,76.5,65.9,54.9,64.0,48.6,31.8,93,60,20,30.11,29.87,17,3,17,0.00
2014-2-18,78.6,63.3,48.7,63.3,49.6,31.6,89,62,43,30.09,29.84,14,2,15,0.00
2014-2-19,75.6,67.5,60.4,63.3,61.5,59.0,97,82,63,29.92,29.67,21,3,21,0.00
2014-2-20,78.4,69.5,58.6,66.6,55.9,34.7,87,66,24,29.93,29.62,29,6,29,0.00
2014-2-21,70.5,50.2,34.2,32.5,27.7,17.6,80,47,14,30.16,30.00,6,1,8,0.00
2014-2-22,75.9,58.6,46.0,46.9,39.2,31.6,69,51,24,30.05,29.83,12,2,13,0.00
2014-2-23,80.1,62.9,49.5,62.6,53.3,42.6,92,72,49,30.06,29.86,13,3,13,0.00
2014-2-24,61.0,52.5,44.4,48.2,43.6,38.3,81,72,62,30.14,30.01,10,2,11,0.00
2014-2-25,54.1,49.2,44.4,46.9,43.6,41.0,95,81,69,30.12,29.99,11,2,11,0.23
2014-2-26,45.7,37.7,29.7,43.2,28.1,21.6,93,69,48,30.27,30.08,13,3,13,0.03
2014-2-27,59.9,40.3,22.5,30.7,25.0,18.9,91,58,29,30.18,29.91,11,1,11,0.00
2014-2-28,72.9,52.6,38.5,55.0,43.6,30.4,84,73,47,29.91,29.73,19,3,21,0.00
2014-3-1,80.4,71.3,66.7,65.8,64.2,62.6,89,79,60,29.92,29.86,20,3,20,0.00
2014-3-2,68.5,40.4,20.1,65.1,38.2,17.4,96,92,76,30.26,29.89,19,4,19,0.07
2014-3-3,26.4,22.0,17.4,23.0,18.3,13.5,91,86,79,30.46,30.26,14,3,14,0.01
2014-3-4,44.8,31.7,25.7,35.8,27.2,23.0,95,84,61,30.34,30.06,9,1,12,0.47
2014-3-5,47.8,39.0,27.1,39.9,34.0,25.9,97,83,67,30.15,30.01,9,1,9,0.15
2014-3-6,60.1,46.8,39.0,41.0,37.4,31.6,90,72,36,30.22,30.04,9,2,12,0.02
2014-3-7,68.2,50.6,34.3,43.5,39.1,33.1,98,69,38,30.07,29.88,10,2,14,0.00
2014-3-8,59.5,50.3,39.0,55.8,47.1,37.2,94,89,77,30.26,29.90,14,2,14,0.05
2014-3-9,56.5,44.6,37.8,48.7,41.5,36.3,96,89,74,30.33,30.19,9,2,9,0.01
2014-3-10,79.5,58.4,40.3,55.9,47.8,39.6,99,73,32,30.19,29.86,11,1,12,0.01
2014-3-11,80.2,65.8,55.6,60.6,56.9,53.8,96,75,45,29.86,29.51,17,3,18,0.00
2014-3-12,62.2,53.8,44.1,56.5,33.6,23.4,86,49,25,30.25,29.69,16,5,21,0.00
2014-3-13,71.8,54.0,34.2,36.5,32.0,26.4,79,47,24,30.32,30.07,11,1,11,0.00
2014-3-14,70.5,57.4,44.4,54.5,47.6,34.3,86,70,55,30.10,29.97,14,2,17,0.00
2014-3-15,67.8,61.6,55.6,63.3,58.5,52.9,97,90,79,29.99,29.65,22,2,22,0.35
2014-3-16,55.8,49.2,40.8,55.2,45.9,35.4,98,89,79,30.01,29.68,19,5,19,0.15
2014-3-17,64.0,48.2,38.7,45.0,37.8,34.0,86,69,36,30.00,29.76,10,2,12,0.00
2014-3-18,79.3,60.6,43.0,56.3,47.5,37.6,88,65,37,29.80,29.62,21,5,22,0.00
2014-3-19,65.1,57.0,48.0,57.0,40.2,33.3,78,54,37,30.18,29.81,9,3,13,0.00
2014-3-20,77.5,57.7,40.8,41.0,35.5,27.7,75,48,18,30.22,30.01,9,1,9,0.00
2014-3-21,82.9,64.6,49.1,59.9,49.7,33.4,78,60,39,30.01,29.80,18,2,18,0.00
2014-3-22,80.1,66.6,59.0,67.3,60.7,52.5,97,82,62,30.00,29.88,10,2,11,0.00
2014-3-23,59.0,51.8,45.0,52.3,46.1,41.5,93,81,63,30.29,30.00,16,3,16,0.00
2014-3-24,67.5,51.9,37.9,41.2,38.2,32.9,95,64,33,30.23,29.99,9,1,9,0.00
2014-3-25,63.9,51.9,42.3,38.3,32.5,26.4,77,51,27,30.36,30.13,14,2,15,0.00
2014-3-26,64.2,51.4,39.6,47.3,37.5,30.2,76,60,36,30.23,29.97,22,4,22,0.00
2014-3-27,68.0,62.3,54.0,66.6,59.5,46.8,97,91,76,29.97,29.69,21,4,21,0.06
2014-3-28,85.3,70.0,54.7,69.1,64.1,49.3,95,83,53,29.95,29.70,10,2,11,0.16
2014-3-29,74.7,59.7,45.9,50.5,43.3,35.6,93,60,27,30.23,29.95,12,3,12,0.00
2014-3-30,80.1,62.6,44.4,47.5,41.6,35.2,72,49,27,30.22,29.99,15,2,15,0.00
2014-3-31,80.8,65.8,53.8,60.4,54.7,43.3,87,69,44,30.00,29.84,19,3,20,0.00
2014-4-1,82.4,70.4,62.4,66.6,63.2,58.6,94,79,55,29.99,29.83,16,3,17,0.00
2014-4-2,74.8,70.8,68.5,69.6,66.6,64.6,92,87,77,29.88,29.71,21,4,25,0.00
2014-4-3,84.9,76.1,67.3,69.6,68.0,58.8,88,77,55,29.77,29.61,26,5,26,0.00
2014-4-4,67.1,59.6,51.1,59.7,39.5,36.3,77,48,34,30.12,29.76,16,2,18,0.00
2014-4-5,56.8,51.2,46.4,45.1,40.5,35.2,93,67,60,30.14,29.93,13,2,13,0.06
2014-4-6,50.2,48.0,46.2,49.3,46.8,44.2,98,96,91,29.96,29.71,10,2,12,0.84
2014-4-7,60.3,52.3,48.0,54.0,49.4,47.1,98,90,73,29.96,29.74,10,2,11,0.00
2014-4-8,69.6,57.6,47.7,50.0,44.1,34.5,97,65,30,30.14,29.92,21,4,21,0.00
2014-4-9,83.1,62.9,42.4,48.2,43.2,37.0,86,53,26,30.24,30.03,12,2,12,0.00
2014-4-10,86.2,70.4,55.9,59.7,54.1,47.8,82,59,35,30.04,29.85,22,4,22,0.00
2014-4-11,85.1,71.1,59.2,64.2,60.3,56.7,93,71,47,30.02,29.88,16,3,17,0.00
2014-4-12,85.8,72.9,63.7,65.8,62.3,59.7,88,71,49,29.96,29.77,24,4,24,0.00
2014-4-13,74.8,68.9,64.8,69.6,64.9,58.8,95,87,75,29.81,29.60,24,4,24,0.10
2014-4-14,69.8,51.4,40.3,68.0,46.7,34.7,98,84,66,30.20,29.62,17,4,17,0.05
2014-4-15,66.2,49.0,31.6,39.0,32.7,25.3,94,59,25,30.32,30.13,11,1,12,0.00
2014-4-16,69.6,52.9,38.3,42.3,38.1,33.8,84,61,33,30.18,29.97,17,2,17,0.00
2014-4-17,73.4,58.1,43.2,55.9,48.6,39.7,97,73,49,30.17,30.05,9,1,10,0.00
2014-4-18,79.0,65.5,53.2,56.1,51.4,47.8,87,63,35,30.21,30.07,14,1,14,0.00
2014-4-19,86.4,67.5,51.6,59.5,54.9,50.0,97,68,36,30.18,30.05,9,1,10,0.00
2014-4-20,83.8,70.2,59.0,64.4,59.5,54.7,91,71,45,30.12,29.97,13,1,16,0.00
2014-4-21,81.9,69.9,61.3,68.7,63.3,57.7,96,80,61,30.04,29.86,13,2,14,0.09
2014-4-22,85.5,70.6,58.6,67.3,61.9,57.7,99,77,42,30.01,29.87,7,1,9,0.01
2014-4-23,89.2,73.8,58.8,66.9,60.9,56.1,96,67,42,29.92,29.73,17,2,17,0.00
2014-4-24,87.1,73.6,63.1,69.4,62.4,51.3,89,70,37,29.90,29.73,15,2,15,0.00
2014-4-25,87.1,69.8,50.5,53.2,44.0,33.1,85,45,16,30.03,29.86,9,1,10,0.00
2014-4-26,89.1,72.0,57.4,71.8,60.9,43.0,89,69,53,29.88,29.65,18,2,18,0.00
2014-4-27,85.8,76.8,71.4,73.9,70.4,65.8,93,81,65,29.65,29.39,19,3,19,0.00
2014-4-28,85.5,73.9,62.2,71.1,56.9,46.0,97,61,26,29.64,29.43,10,1,10,0.00
2014-4-29,80.2,66.2,54.0,51.3,45.2,36.7,76,50,22,29.91,29.58,19,2,21,0.00
2014-4-30,69.6,56.5,47.7,44.6,41.8,38.3,81,60,36,30.11,29.90,14,1,15,0.00
2014-5-1,75.9,60.0,41.2,48.7,40.0,35.4,93,54,25,30.14,29.99,14,1,14,0.00
2014-5-2,84.0,66.3,48.2,48.2,41.4,32.0,83,46,17,30.03,29.88,12,1,13,0.00
2014-5-3,93.4,72.1,51.4,55.2,45.5,38.3,73,43,18,30.01,29.93,7,1,7,0.00
2014-5-4,92.3,76.0,60.4,53.4,48.9,43.5,66,41,22,30.03,29.91,15,2,15,0.00
2014-5-5,89.1,74.9,61.0,64.9,55.4,36.7,82,52,34,29.93,29.76,19,3,19,0.00
2014-5-6,88.0,74.8,62.6,66.6,62.5,58.8,90,68,45,29.82,29.68,19,3,19,0.00
2014-5-7,85.8,74.6,65.5,68.9,64.8,60.8,89,73,53,29.85,29.74,16,3,16,0.00
2014-5-8,80.1,71.0,63.3,72.3,67.9,62.4,98,90,76,29.87,29.78,21,3,24,2.88
2014-5-9,86.4,73.7,63.0,77.0,70.0,62.4,100,89,70,29.89,29.74,16,1,16,0.02
2014-5-10,86.7,75.0,64.0,73.6,69.2,63.5,99,83,64,29.89,29.76,16,2,16,0.01
2014-5-11,91.0,79.1,70.5,74.5,71.6,69.1,97,79,56,29.83,29.69,18,3,20,0.00
2014-5-12,88.5,76.6,64.9,75.7,70.8,64.0,98,83,61,29.95,29.72,16,2,19,0.60
2014-5-13,65.1,59.3,55.0,64.6,56.3,51.3,98,90,76,30.16,29.90,9,2,10,0.13
2014-5-14,68.4,58.7,51.3,56.8,50.3,44.4,98,76,43,30.22,30.10,15,2,15,0.27
2014-5-15,82.6,64.4,45.9,55.4,50.2,44.1,96,65,32,30.23,30.04,11,1,12,0.00
2014-5-16,87.3,69.8,52.2,58.8,54.0,49.1,96,61,32,30.12,29.89,12,1,12,0.00
2014-5-17,84.6,71.7,56.3,63.3,56.1,44.1,86,59,44,30.02,29.85,13,2,13,0.00
2014-5-18,86.2,72.7,59.7,67.6,62.7,58.5,99,73,47,30.09,29.97,12,2,12,0.00
2014-5-19,85.6,74.6,63.0,68.5,64.2,61.3,97,72,50,30.03,29.90,16,3,19,0.00
2014-5-20,88.5,77.4,69.3,70.0,66.8,63.9,87,71,51,30.03,29.93,17,3,20,0.00
2014-5-21,89.8,77.6,66.9,69.4,66.6,63.9,95,71,47,30.08,29.93,14,2,14,0.00
2014-5-22,90.9,76.8,66.0,71.1,67.6,64.6,98,75,48,30.10,29.96,9,1,10,0.00
2014-5-23,88.9,76.0,65.8,72.3,67.5,64.6,98,77,48,30.08,29.95,12,1,12,0.00
2014-5-24,86.7,75.7,68.2,71.2,67.6,64.9,96,78,54,30.05,29.92,10,1,10,0.02
2014-5-25,90.0,78.2,68.5,71.6,68.6,64.9,96,74,50,30.02,29.91,11,1,11,0.00
2014-5-26,85.5,74.4,64.6,72.7,68.7,62.8,94,83,60,30.03,29.86,17,1,17,0.00
2014-5-27,81.5,70.0,64.0,70.2,66.8,62.2,99,90,65,29.96,29.82,9,1,9,0.79
2014-5-28,83.3,72.8,66.0,70.9,67.4,64.6,99,84,58,29.89,29.78,9,1,9,0.37
2014-5-29,87.6,74.7,64.8,72.1,68.2,63.9,99,82,54,29.86,29.74,7,0,7,0.00
2014-5-30,83.8,74.2,67.8,74.7,70.2,66.9,99,88,66,29.84,29.77,8,1,8,0.00
2014-5-31,86.7,75.9,70.5,75.4,71.2,69.1,98,87,61,29.91,29.83,9,1,9,0.02
2014-6-1,91.6,78.6,69.3,76.3,72.0,68.5,99,82,53,29.94,29.81,9,1,10,0.00
2014-6-2,92.8,80.9,73.2,76.5,72.8,70.7,93,78,53,29.99,29.85,13,2,13,0.00
2014-6-3,91.9,81.1,71.2,75.9,72.6,70.0,98,77,54,29.99,29.85,10,1,10,0.00
2014-6-4,91.8,81.2,72.1,75.7,72.8,70.3,97,77,56,29.87,29.75,12,2,12,0.00
2014-6-5,90.7,80.3,72.3,76.6,73.5,71.2,98,81,60,29.85,29.75,14,1,14,0.00
2014-6-6,93.0,82.0,72.9,76.5,73.8,71.6,98,78,55,29.95,29.79,11,1,12,0.00
2014-6-7,97.5,85.2,73.0,76.1,73.1,70.9,94,70,47,29.90,29.80,11,1,12,0.00
2014-6-8,92.5,81.9,75.2,76.8,74.0,71.6,92,78,57,29.92,29.73,13,1,14,0.00
2014-6-9,77.4,71.2,64.9,73.4,68.8,63.5,99,93,78,29.83,29.69,16,1,26,1.19
2014-6-10,86.2,73.9,63.0,69.8,65.6,62.4,99,78,49,29.80,29.69,14,1,15,0.01
2014-6-11,94.6,79.1,63.7,72.9,67.7,61.9,98,71,45,29.87,29.73,8,1,8,0.00
2014-6-12,82.8,74.8,71.2,75.6,71.4,67.6,98,90,73,29.96,29.71,13,1,13,0.27
2014-6-13,91.8,79.9,70.5,75.6,72.1,69.1,98,79,55,29.95,29.84,4,1,7,0.00
2014-6-14,90.9,79.6,69.4,77.5,72.5,67.8,96,80,58,29.91,29.79,13,2,15,0.00
2014-6-15,93.6,82.7,74.1,77.4,73.6,71.6,94,76,55,29.92,29.78,15,2,17,0.00
2014-6-16,93.0,83.2,74.1,78.4,74.6,72.1,97,77,56,30.01,29.89,13,2,13,0.00
2014-6-17,91.9,82.6,75.7,80.1,75.4,71.8,91,80,63,29.99,29.88,14,2,14,0.01
2014-6-18,94.8,80.2,73.6,78.4,73.8,71.4,95,82,54,29.98,29.89,20,2,20,0.04
2014-6-19,93.4,84.8,73.8,77.7,74.0,71.2,96,73,53,30.04,29.94,12,1,12,0.00
2014-6-20,95.4,83.5,72.0,77.5,72.3,64.4,97,72,39,30.05,29.94,8,1,9,0.00
2014-6-21,95.2,82.3,72.1,78.3,72.6,69.3,94,74,45,30.01,29.86,8,1,8,0.00
2014-6-22,78.1,76.1,72.9,76.6,74.2,71.6,98,94,87,29.92,29.80,6,0,6,0.14
2014-6-23,91.6,78.7,72.0,78.3,74.2,71.4,99,87,61,29.91,29.77,19,1,19,0.03
2014-6-24,93.0,77.3,70.2,79.7,72.8,67.3,99,87,61,30.00,29.90,11,1,12,0.30
2014-6-25,80.8,73.3,69.3,76.5,71.2,67.8,98,94,84,30.04,29.93,5,0,6,0.06
2014-6-26,91.0,78.3,70.0,78.1,72.7,69.1,99,84,61,30.01,29.85,11,1,15,0.00
2014-6-27,86.5,77.2,70.9,79.3,73.4,69.6,97,89,73,29.91,29.80,14,2,14,0.27
2014-6-28,92.7,81.9,74.7,79.7,75.6,72.5,94,82,61,29.92,29.83,18,3,18,0.03
2014-6-29,93.7,85.0,78.3,79.3,76.6,75.0,91,77,59,30.00,29.89,14,2,17,0.00
2014-6-30,95.2,84.7,75.6,78.6,75.0,72.1,92,74,51,29.96,29.82,15,2,15,0.00
2014-7-1,96.3,83.5,72.7,79.0,75.0,71.2,97,77,53,29.96,29.81,11,1,11,0.00
2014-7-2,97.0,84.1,74.8,77.2,74.1,71.6,95,74,47,30.03,29.91,7,0,8,0.00
2014-7-3,86.4,77.0,68.7,75.9,71.3,67.3,98,84,62,30.12,30.00,12,1,15,0.59
2014-7-4,90.3,80.1,70.2,76.6,72.3,69.3,98,79,58,30.19,30.09,11,1,11,0.00
2014-7-5,92.7,79.5,67.5,75.4,70.1,64.8,96,75,53,30.16,30.02,8,1,10,0.00
2014-7-6,96.1,83.0,69.4,77.2,72.9,68.2,98,74,47,30.03,29.91,9,1,10,0.00
2014-7-7,97.0,84.6,72.0,78.3,73.6,70.5,97,72,48,29.97,29.87,11,1,13,0.00
2014-7-8,97.9,85.4,74.3,79.3,74.8,71.6,92,72,49,29.98,29.87,10,1,10,0.00
2014-7-9,99.1,86.0,75.0,77.0,73.3,69.8,86,68,45,30.03,29.89,9,1,9,0.00
2014-7-10,98.6,86.0,74.8,75.4,72.2,69.3,88,66,44,30.02,29.91,10,1,11,0.00
2014-7-11,99.1,85.2,70.5,75.7,71.8,67.6,93,67,42,30.09,29.99,9,1,9,0.00
2014-7-12,100.8,87.4,72.0,77.0,72.4,69.6,95,65,37,30.12,29.98,9,0,10,0.00
2014-7-13,103.5,88.9,74.7,77.9,73.4,69.3,89,64,35,30.04,29.90,8,1,8,0.00
2014-7-14,102.9,86.8,73.9,77.2,73.4,70.9,94,68,37,29.96,29.83,12,1,12,0.01
2014-7-15,91.0,80.5,71.8,75.6,69.8,58.5,95,73,35,29.98,29.88,9,1,11,0.01
2014-7-16,93.6,79.2,65.1,71.2,65.7,58.6,87,65,44,29.99,29.85,8,1,9,0.00
2014-7-17,76.3,70.5,66.6,68.5,66.5,63.7,99,88,70,29.93,29.84,18,1,18,0.88
2014-7-18,68.7,66.9,63.7,68.2,65.7,63.3,99,96,90,29.97,29.86,8,1,10,0.03
2014-7-19,75.7,69.6,65.5,69.1,66.9,64.9,99,91,78,30.01,29.95,4,0,5,0.03
2014-7-20,89.2,76.9,65.1,75.4,70.0,64.2,99,81,60,30.02,29.91,6,0,6,0.00
2014-7-21,94.5,79.9,67.5,80.4,72.6,66.2,98,80,57,30.03,29.93,7,0,7,0.00
2014-7-22,94.3,82.2,70.9,78.4,73.0,69.4,98,76,51,30.03,29.96,7,0,8,0.00
2014-7-23,97.7,82.5,69.1,76.3,71.4,67.8,98,73,43,30.05,29.92,5,0,5,0.00
2014-7-24,91.0,82.6,73.2,75.9,73.7,70.7,92,76,59,29.96,29.90,4,0,5,0.33
2014-7-25,98.1,83.6,70.3,80.1,74.3,69.4,99,76,49,29.98,29.88,11,1,12,0.00
2014-7-26,99.9,86.3,73.4,79.2,74.9,71.6,96,72,43,29.98,29.88,9,1,11,0.00
2014-7-27,100.9,87.6,75.7,79.0,75.5,73.4,94,70,46,30.00,29.92,11,1,11,0.00
2014-7-28,97.7,83.7,74.8,80.8,75.1,69.4,91,77,55,30.06,29.96,10,1,11,0.00
2014-7-29,97.2,82.3,72.5,72.0,68.1,60.8,83,64,35,30.09,29.98,9,0,9,0.00
2014-7-30,88.3,78.8,72.7,75.0,70.2,66.7,85,75,62,30.04,29.89,10,1,11,0.00
2014-7-31,77.2,72.5,70.0,76.1,70.8,67.3,99,95,75,29.97,29.87,11,1,11,3.15
2014-8-1,74.8,70.1,66.9,70.5,68.6,66.6,99,95,86,30.00,29.92,7,1,8,0.03
2014-8-2,84.4,74.7,68.0,73.6,70.0,66.9,99,87,66,30.04,29.95,12,1,12,0.01
2014-8-3,88.5,78.7,70.3,76.1,72.0,69.1,97,81,63,30.02,29.92,12,1,12,0.00
2014-8-4,90.9,81.0,71.8,75.9,72.8,70.5,98,78,57,30.02,29.93,8,1,9,0.00
2014-8-5,96.4,83.7,72.0,79.5,74.9,70.7,98,77,53,30.04,29.94,7,0,7,0.00
2014-8-6,96.6,85.1,73.9,79.9,75.6,72.7,97,75,50,30.00,29.87,11,1,11,0.00
2014-8-7,96.6,85.4,75.6,81.5,77.2,73.8,95,78,58,29.91,29.76,10,1,12,0.00
2014-8-8,98.6,87.0,76.8,81.3,76.8,73.4,91,73,52,29.91,29.80,12,1,12,0.00
2014-8-9,99.3,87.1,76.5,81.3,77.0,74.5,95,74,50,29.96,29.86,9,1,9,0.00
2014-8-10,102.7,87.3,74.8,81.0,76.5,72.5,95,73,45,29.98,29.86,6,0,7,0.00
2014-8-11,96.8,85.2,75.7,79.3,74.5,70.7,94,72,47,29.98,29.89,9,0,10,0.00
2014-8-12,93.0,81.2,70.9,75.2,66.8,58.8,94,65,36,30.00,29.92,11,1,11,0.00
2014-8-13,92.1,78.2,63.9,69.1,64.2,60.1,91,65,39,30.06,29.95,7,0,7,0.00
2014-8-14,93.4,79.2,64.9,70.9,66.2,62.2,95,68,41,30.04,29.92,8,1,9,0.00
2014-8-15,96.6,81.4,67.3,76.3,70.5,63.9,90,71,48,29.99,29.83,9,1,10,0.00
2014-8-16,101.5,86.2,75.4,79.2,74.6,70.9,92,71,44,29.91,29.81,12,1,13,0.00
2014-8-17,88.7,82.8,77.9,78.6,76.0,72.3,92,80,68,29.95,29.84,12,1,12,0.00
2014-8-18,93.0,83.6,77.2,80.4,76.2,72.7,91,79,64,29.93,29.80,10,1,10,0.00
2014-8-19,99.7,84.8,74.5,79.5,73.8,69.3,94,72,41,29.90,29.81,25,1,25,0.00
2014-8-20,99.1,85.1,74.3,78.8,74.0,70.0,96,72,46,29.95,29.85,13,2,16,0.00
2014-8-21,99.1,86.6,75.6,79.2,74.5,69.4,97,70,40,30.01,29.92,14,2,15,0.00
2014-8-22,101.8,87.2,75.6,78.6,74.5,72.0,93,69,41,30.02,29.90,11,1,11,0.00
2014-8-23,100.4,86.3,73.2,76.5,72.3,68.4,95,67,37,29.97,29.85,8,1,9,0.00
2014-8-24,103.3,86.8,73.8,76.8,72.7,70.3,92,66,38,29.93,29.81,10,1,11,0.00
2014-8-25,101.8,86.8,72.7,76.8,71.8,68.9,93,64,38,29.94,29.83,8,0,8,0.00
2014-8-26,99.0,85.2,74.5,77.0,73.2,70.2,92,69,45,30.00,29.89,10,1,11,0.00
2014-8-27,97.0,82.5,72.3,75.9,68.2,59.0,96,66,32,30.02,29.90,9,1,10,0.00
2014-8-28,99.3,84.4,71.2,76.1,70.6,64.8,90,66,42,29.94,29.79,12,1,12,0.00
2014-8-29,93.6,80.6,75.2,79.7,74.0,70.0,98,81,56,29.90,29.80,11,1,13,0.17
2014-8-30,94.6,81.6,71.4,76.5,72.8,69.6,96,77,50,29.93,29.83,8,1,8,0.00
2014-8-31,97.2,83.3,73.9,76.6,74.3,72.1,97,77,48,29.96,29.85,14,2,14,0.00
2014-9-1,97.5,84.2,75.7,77.2,73.5,68.2,93,73,44,29.91,29.82,13,2,13,0.00
2014-9-2,100.2,85.6,76.6,78.3,75.3,72.5,92,74,43,29.98,29.84,13,2,14,0.00
2014-9-3,98.8,84.8,74.1,78.4,74.3,70.2,98,74,42,29.98,29.88,10,1,15,0.00
2014-9-4,99.7,85.8,74.8,77.9,73.9,70.5,96,70,43,30.01,29.92,9,1,13,0.00
2014-9-5,101.8,85.3,72.9,78.3,72.4,69.4,97,69,38,30.06,29.92,10,1,11,0.00
2014-9-6,98.2,82.3,71.2,78.3,72.4,69.3,97,75,42,30.04,29.88,15,1,15,0.77
2014-9-7,86.7,76.9,72.1,78.1,73.4,71.6,99,90,66,30.04,29.92,7,0,7,0.00
2014-9-8,95.4,81.5,71.4,78.4,73.9,70.3,99,80,53,30.01,29.88,7,0,8,0.00
2014-9-9,96.4,84.0,72.7,78.3,73.8,71.2,97,74,48,29.95,29.79,14,1,14,0.00
2014-9-10,97.9,85.0,75.4,78.3,74.6,72.3,93,73,50,29.82,29.72,14,2,16,0.00
2014-9-11,96.3,80.3,72.3,83.3,75.3,71.6,99,86,57,29.96,29.79,8,1,12,1.22
2014-9-12,76.5,72.2,63.5,75.2,71.1,62.4,99,97,88,30.13,29.92,9,1,11,0.03
2014-9-13,65.7,62.1,59.5,62.4,60.5,59.0,99,95,85,30.23,30.11,10,2,11,0.27
2014-9-14,81.9,69.8,60.8,70.7,64.7,59.7,97,85,65,30.21,30.07,6,0,7,0.00
2014-9-15,85.3,75.2,67.8,76.1,70.5,66.0,98,86,68,30.12,30.03,5,0,6,0.01
2014-9-16,88.9,79.0,71.8,77.0,73.3,70.7,97,84,62,30.08,29.92,5,0,5,0.00
2014-9-17,93.0,80.2,70.9,79.0,73.7,70.0,99,82,57,29.96,29.80,7,0,7,0.00
2014-9-18,88.3,77.4,69.8,78.6,72.4,67.6,97,85,67,29.90,29.79,10,1,14,0.00
2014-9-19,87.1,76.6,68.7,76.5,72.0,67.3,99,87,66,29.94,29.85,8,0,9,0.02
2014-9-20,91.8,78.8,68.7,76.3,70.4,67.3,99,78,49,29.99,29.89,8,1,11,0.01
2014-9-21,92.7,80.2,68.2,74.7,70.0,66.2,97,73,48,30.05,29.94,5,0,6,0.00
2014-9-22,84.0,74.8,63.9,71.1,62.7,55.6,95,69,40,30.15,30.02,9,1,11,0.30
2014-9-23,82.8,68.8,56.7,62.4,57.3,53.8,92,69,42,30.17,30.04,4,0,7,0.00
2014-9-24,85.6,70.0,54.5,64.8,57.5,52.0,94,68,39,30.16,30.06,7,0,10,0.00
2014-9-25,86.5,72.4,58.8,67.1,61.2,56.5,94,71,45,30.16,30.05,6,0,8,0.00
2014-9-26,86.7,73.8,61.3,68.9,63.0,58.5,93,71,45,30.11,29.98,6,0,7,0.00
2014-9-27,86.4,73.5,64.0,70.0,63.8,60.4,90,73,49,30.05,29.93,6,0,7,0.00
2014-9-28,88.0,75.7,67.8,70.9,65.3,62.4,93,72,48,30.04,29.93,8,1,10,0.00
2014-9-29,88.3,75.0,64.0,72.9,66.7,61.2,93,76,55,29.97,29.85,7,0,9,0.00
2014-9-30,90.3,78.3,66.9,74.8,69.5,64.4,94,76,55,29.87,29.72,9,1,11,0.00
2014-10-1,92.1,80.2,71.1,77.5,73.2,69.4,98,81,54,29.81,29.70,8,1,11,0.00
2014-10-2,95.2,79.5,68.4,77.7,73.1,67.3,98,83,54,29.87,29.62,18,2,22,0.62
2014-10-3,80.4,67.5,56.8,67.3,56.7,51.4,97,72,38,30.17,29.87,10,1,11,0.01
2014-10-4,79.3,62.3,47.1,53.2,46.6,37.4,93,61,27,30.19,29.96,7,0,7,0.00
2014-10-5,86.4,68.6,55.8,66.0,56.8,47.5,80,67,49,29.96,29.80,11,2,13,0.00
2014-10-6,84.6,70.1,60.4,67.5,63.5,57.9,98,81,49,29.94,29.80,12,1,16,0.45
2014-10-7,92.7,76.0,65.7,77.0,69.8,63.3,98,83,54,29.92,29.83,11,1,11,0.00
2014-10-8,87.8,78.0,72.7,74.1,72.0,70.3,96,83,61,30.01,29.91,10,1,12,0.00
2014-10-9,87.3,78.0,72.3,75.9,71.4,66.2,97,81,59,29.98,29.84,10,1,10,0.00
2014-10-10,93.0,80.2,71.4,75.7,72.4,69.6,97,79,52,29.93,29.78,13,1,13,0.00
2014-10-11,76.3,64.3,59.4,73.4,63.1,57.9,99,96,81,30.02,29.83,10,1,11,1.11
2014-10-12,70.0,62.9,58.1,69.6,61.4,55.9,99,95,84,29.99,29.68,15,1,15,0.08
2014-10-13,73.9,62.9,57.2,72.0,60.4,52.5,99,92,81,29.87,29.55,23,2,23,0.93
2014-10-14,74.7,61.2,52.2,53.1,49.1,44.4,85,67,36,30.03,29.87,18,2,22,0.00
2014-10-15,82.9,64.3,50.0,57.7,50.6,44.8,94,64,34,30.08,29.94,6,0,6,0.00
2014-10-16,87.6,68.5,53.1,60.1,54.7,50.7,95,65,34,29.94,29.79,10,1,10,0.00
2014-10-17,88.9,72.3,61.9,67.3,62.4,55.6,92,73,47,29.92,29.79,13,1,13,0.00
2014-10-18,79.9,68.4,59.7,65.1,61.3,55.4,97,79,58,30.08,29.92,8,1,11,0.00
2014-10-19,76.5,62.2,52.9,57.9,54.6,51.8,97,78,49,30.15,30.03,9,0,9,0.01
2014-10-20,80.4,63.9,51.6,64.9,57.1,50.2,97,80,54,30.09,29.98,5,0,5,0.00
2014-10-21,82.2,66.8,54.9,65.5,59.3,53.1,97,79,52,30.09,29.98,5,0,6,0.00
2014-10-22,81.3,67.1,58.3,64.8,59.0,54.7,99,78,46,30.14,30.01,9,0,9,0.00
2014-10-23,77.9,64.7,57.2,61.0,56.4,53.4,91,76,52,30.14,30.03,6,0,6,0.00
2014-10-24,83.3,66.1,54.1,64.9,58.5,52.0,95,78,51,30.16,30.05,7,0,8,0.00
2014-10-25,89.8,70.9,59.2,69.3,62.9,57.6,95,78,47,30.14,30.01,10,1,11,0.00
2014-10-26,86.7,71.3,61.3,67.8,62.5,58.1,95,76,50,30.01,29.86,11,1,11,0.00
2014-10-27,83.7,73.2,61.2,68.0,62.7,59.2,97,71,50,29.89,29.79,15,2,16,0.00
2014-10-28,81.1,70.5,66.0,70.5,65.6,60.6,97,85,68,30.04,29.84,11,1,14,0.00
2014-10-29,75.4,64.3,53.1,65.5,55.6,48.2,97,76,42,30.18,30.04,10,1,10,0.00
2014-10-30,80.1,62.7,47.7,54.0,50.0,45.9,96,67,33,30.15,30.03,7,1,9,0.00
2014-10-31,67.8,56.9,47.1,54.1,46.4,39.0,83,69,46,30.32,30.09,11,1,12,0.00
2014-11-1,60.8,46.8,35.6,39.0,34.3,29.3,90,65,31,30.45,30.31,10,0,10,0.00
2014-11-2,66.7,51.1,38.7,45.0,39.0,33.1,85,65,41,30.39,30.21,14,2,15,0.00
2014-11-3,76.5,63.3,48.7,61.7,55.2,43.5,94,76,57,30.22,30.08,20,3,20,0.00
2014-11-4,72.9,62.2,57.4,66.6,60.2,56.7,98,93,77,30.16,30.05,14,2,15,0.78
2014-11-5,58.1,56.6,54.1,57.6,56.2,53.4,99,99,97,30.21,30.10,7,1,7,0.62
2014-11-6,70.3,58.0,48.6,57.4,50.5,37.6,99,78,48,30.31,30.20,9,1,9,0.00
2014-11-7,67.5,51.7,39.0,46.9,40.8,35.1,92,69,38,30.29,30.01,7,0,8,0.00
2014-11-8,66.4,53.8,43.7,52.0,45.0,39.0,96,74,45,30.12,30.00,14,1,14,0.00
2014-11-9,72.7,53.0,37.2,48.4,42.8,34.3,97,71,39,30.13,29.88,8,1,9,0.00
2014-11-10,77.7,61.5,45.7,60.8,50.5,43.0,93,70,38,29.88,29.65,20,2,22,0.00
2014-11-11,65.8,50.5,38.7,62.6,41.5,29.7,92,71,55,30.19,29.68,18,2,18,0.00
2014-11-12,47.1,38.4,33.1,31.6,26.9,19.6,79,64,50,30.43,30.19,13,2,14,0.00
2014-11-13,37.4,33.4,27.7,20.8,17.5,14.9,68,52,42,30.56,30.43,14,2,14,0.00
2014-11-14,43.5,34.9,26.1,27.3,21.9,17.8,73,60,41,30.50,30.31,5,0,9,0.00
2014-11-15,45.7,40.6,37.6,38.5,32.7,26.6,95,74,60,30.32,30.07,12,1,13,0.04
2014-11-16,41.4,38.6,31.6,40.6,37.4,29.7,98,95,89,30.22,29.96,10,2,11,0.07
2014-11-17,45.0,32.9,23.7,29.8,24.0,20.8,93,72,43,30.45,30.20,12,1,12,0.01
2014-11-18,57.2,37.6,24.4,27.7,24.3,19.4,86,62,29,30.54,30.33,9,1,9,0.00
2014-11-19,66.9,47.8,34.2,46.2,37.1,25.7,92,68,45,30.33,30.14,18,2,18,0.00
2014-11-20,73.6,57.4,45.9,57.7,52.3,44.1,98,85,55,30.16,30.02,14,1,14,0.00
2014-11-21,64.6,59.8,56.8,62.4,58.4,54.9,99,95,89,30.15,30.06,15,2,20,0.23
2014-11-22,68.7,61.7,57.7,61.5,58.1,53.8,98,88,76,30.12,29.68,17,2,17,0.76
2014-11-23,75.7,62.4,51.3,62.4,55.4,42.8,99,80,48,29.74,29.35,18,2,18,0.03
2014-11-24,64.0,49.7,38.1,43.0,35.5,26.4,94,62,27,30.14,29.74,12,1,13,0.00
2014-11-25,67.3,49.6,36.1,36.9,32.7,29.8,83,55,26,30.30,30.12,11,1,11,0.00
2014-11-26,68.0,52.1,40.5,40.6,35.9,32.7,75,57,30,30.35,30.03,11,1,14,0.00
2014-11-27,63.0,48.0,37.8,34.2,29.5,23.9,71,51,24,30.53,30.35,9,1,9,0.00
2014-11-28,69.8,53.3,38.7,53.8,44.1,31.1,91,72,53,30.37,30.00,16,2,20,0.00
2014-11-29,78.3,65.3,55.8,60.4,57.1,53.2,94,76,50,30.01,29.88,21,4,22,0.00
2014-11-30,80.8,69.3,64.0,64.8,62.0,60.3,91,79,54,30.09,29.90,18,3,19,0.00
2014-12-1,64.0,46.5,37.8,62.2,39.9,27.5,98,78,62,30.42,30.09,13,2,13,0.00
2014-12-2,57.6,42.9,35.8,41.0,32.0,24.8,89,66,47,30.41,30.16,7,1,8,0.00
2014-12-3,62.2,54.9,44.1,56.7,52.1,41.0,97,90,81,30.23,30.14,9,1,10,0.00
2014-12-4,70.3,61.6,56.8,61.7,58.0,55.2,96,89,73,30.20,30.05,13,1,15,0.00
2014-12-5,75.4,66.8,62.2,67.6,63.3,60.3,99,89,71,30.12,29.97,12,2,17,0.02
2014-12-6,67.3,59.2,49.5,61.2,52.5,46.6,92,79,60,30.37,30.11,13,2,13,0.01
2014-12-7,55.9,50.2,46.0,47.7,45.6,42.4,96,84,70,30.42,30.24,9,1,10,0.00
2014-12-8,65.1,49.4,39.0,49.1,44.0,37.9,98,83,54,30.35,30.25,7,0,7,0.00
2014-12-9,66.7,48.6,38.5,51.3,43.5,37.8,99,84,49,30.37,30.24,6,0,6,0.00
2014-12-10,57.4,48.5,41.2,46.6,43.5,39.9,96,83,66,30.29,30.16,8,1,9,0.00
2014-12-11,57.9,53.2,48.9,57.4,51.5,45.0,98,94,82,30.23,30.14,7,1,8,0.27
2014-12-12,63.9,57.1,52.3,61.2,56.1,51.8,99,97,89,30.28,30.19,5,0,8,0.28
2014-12-13,71.4,58.9,51.3,60.6,55.3,50.5,99,89,62,30.24,30.07,8,1,12,0.01
2014-12-14,69.1,62.9,55.8,63.3,60.0,53.8,96,91,76,30.07,29.76,24,3,24,0.14
2014-12-15,67.8,60.8,47.8,64.2,48.8,35.4,96,67,41,30.12,29.77,17,3,18,0.12
2014-12-16,53.6,45.0,38.1,36.7,34.3,30.7,84,67,51,30.33,30.11,14,2,16,0.00
2014-12-17,47.1,41.5,36.1,41.9,37.8,32.9,97,87,75,30.30,30.10,7,1,11,0.10
2014-12-18,48.4,45.1,41.0,47.3,44.4,40.3,99,97,96,30.17,30.09,10,1,10,0.04
2014-12-19,47.7,46.5,45.9,47.1,45.9,45.1,98,97,97,30.21,30.09,10,2,10,0.18
2014-12-20,54.9,47.3,41.5,48.0,45.2,40.8,98,93,75,30.25,30.16,6,0,6,0.00
2014-12-21,52.2,47.3,41.2,48.0,45.1,40.5,98,92,81,30.18,29.77,17,1,17,0.00
2014-12-22,71.1,59.7,49.6,57.2,51.7,46.4,94,76,49,29.77,29.52,18,3,23,0.00
2014-12-23,54.5,48.7,43.5,48.0,43.1,34.5,95,81,68,29.88,29.62,15,2,15,0.28
2014-12-24,52.2,43.7,34.2,37.9,35.4,31.5,91,73,56,30.06,29.88,16,2,16,0.00
2014-12-25,62.8,47.3,33.1,45.7,36.7,31.1,95,71,34,30.12,29.97,18,2,19,0.00
2014-12-26,61.3,56.5,49.6,60.3,54.2,45.3,96,92,85,30.01,29.90,13,3,13,0.01
2014-12-27,61.3,47.6,36.5,61.0,46.0,33.6,99,94,87,30.26,29.97,17,3,17,0.17
2014-12-28,39.9,36.5,32.0,34.5,32.0,30.0,96,84,74,30.27,30.15,8,1,9,0.01
2014-12-29,45.9,39.5,30.0,42.1,37.8,28.6,98,94,85,30.26,30.11,8,1,8,0.00
2014-12-30,43.5,38.9,35.4,41.4,34.3,29.5,94,84,65,30.54,30.26,10,2,12,0.00
2014-12-31,40.6,37.0,33.8,31.1,29.4,27.7,80,74,67,30.60,30.40,14,2,14,0.00
2015-1-1,38.3,36.7,35.1,37.2,35.0,29.8,98,94,72,30.40,30.18,7,1,7,0.68
2015-1-2,42.4,40.2,37.8,42.1,39.8,37.2,99,98,98,30.21,29.91,9,1,9,0.78